sensor_id;sensor_type;location;lat;lon;timestamp;P1;durP1;ratioP1;P2;durP2;ratioP2
9445;SDS011;4761;49.490;10.908;2024-03-23T00:55:05;3.57;;;2.90;;
9445;SDS011;4761;49.490;10.908;2024-03-23T00:57:30;3.83;;;2.90;;
9445;SDS011;4761;49.490;10.908;2024-03-23T00:59:56;3.13;;;2.83;;
9445;SDS011;4761;49.490;10.908;2024-03-23T01:02:21;2.83;;;2.40;;
9445;SDS011;4761;49.490;10.908;2024-03-23T01:04:47;3.33;;;3.03;;
9445;SDS011;4761;49.490;10.908;2024-03-23T01:07:12;2.97;;;2.40;;
9445;SDS011;4761;49.490;10.908;2024-03-23T01:09:38;3.20;;;2.90;;
9445;SDS011;4761;49.490;10.908;2024-03-23T01:12:03;3.93;;;3.40;;
9445;SDS011;4761;49.490;10.908;2024-03-23T01:14:29;2.90;;;2.63;;
9445;SDS011;4761;49.490;10.908;2024-03-23T01:16:55;4.07;;;3.10;;
9445;SDS011;4761;49.490;10.908;2024-03-23T01:19:21;2.93;;;2.73;;
9445;SDS011;4761;49.490;10.908;2024-03-23T01:21:46;4.07;;;3.00;;
9445;SDS011;4761;49.490;10.908;2024-03-23T01:24:12;3.20;;;2.87;;
9445;SDS011;4761;49.490;10.908;2024-03-23T01:26:37;3.67;;;3.03;;
9445;SDS011;4761;49.490;10.908;2024-03-23T01:29:03;3.10;;;2.77;;
9445;SDS011;4761;49.490;10.908;2024-03-23T01:31:28;4.20;;;3.70;;
9445;SDS011;4761;49.490;10.908;2024-03-23T01:33:54;3.90;;;3.53;;
9445;SDS011;4761;49.490;10.908;2024-03-23T01:36:19;4.40;;;3.53;;
9445;SDS011;4761;49.490;10.908;2024-03-23T01:38:45;4.03;;;3.50;;
9445;SDS011;4761;49.490;10.908;2024-03-23T01:41:10;3.60;;;3.30;;
9445;SDS011;4761;49.490;10.908;2024-03-23T01:43:36;4.20;;;3.27;;
9445;SDS011;4761;49.490;10.908;2024-03-23T01:46:01;3.40;;;3.10;;
9445;SDS011;4761;49.490;10.908;2024-03-23T01:48:27;3.77;;;3.37;;
9445;SDS011;4761;49.490;10.908;2024-03-23T01:50:53;3.30;;;3.00;;
9445;SDS011;4761;49.490;10.908;2024-03-23T01:53:18;3.30;;;3.00;;
9445;SDS011;4761;49.490;10.908;2024-03-23T01:55:46;4.40;;;3.30;;
9445;SDS011;4761;49.490;10.908;2024-03-23T01:58:12;4.13;;;3.60;;
9445;SDS011;4761;49.490;10.908;2024-03-23T02:00:38;3.50;;;3.20;;
9445;SDS011;4761;49.490;10.908;2024-03-23T02:03:21;4.57;;;3.00;;
9445;SDS011;4761;49.490;10.908;2024-03-23T02:05:48;3.30;;;3.00;;
9445;SDS011;4761;49.490;10.908;2024-03-23T02:08:13;3.97;;;3.30;;
9445;SDS011;4761;49.490;10.908;2024-03-23T02:10:39;3.70;;;2.87;;
9445;SDS011;4761;49.490;10.908;2024-03-23T02:13:05;5.50;;;3.10;;
9445;SDS011;4761;49.490;10.908;2024-03-23T02:15:30;3.30;;;3.00;;
9445;SDS011;4761;49.490;10.908;2024-03-23T02:17:55;4.17;;;3.50;;
9445;SDS011;4761;49.490;10.908;2024-03-23T02:20:21;3.47;;;3.10;;
9445;SDS011;4761;49.490;10.908;2024-03-23T02:22:51;4.13;;;3.00;;
9445;SDS011;4761;49.490;10.908;2024-03-23T02:25:18;3.78;;;3.00;;
9445;SDS011;4761;49.490;10.908;2024-03-23T02:27:43;3.20;;;2.90;;
9445;SDS011;4761;49.490;10.908;2024-03-23T02:30:09;3.27;;;2.73;;
9445;SDS011;4761;49.490;10.908;2024-03-23T02:32:35;3.87;;;3.37;;
9445;SDS011;4761;49.490;10.908;2024-03-23T02:35:01;3.43;;;3.03;;
9445;SDS011;4761;49.490;10.908;2024-03-23T02:37:26;3.20;;;2.90;;
9445;SDS011;4761;49.490;10.908;2024-03-23T02:39:51;3.17;;;2.73;;
9445;SDS011;4761;49.490;10.908;2024-03-23T02:42:17;4.23;;;2.87;;
9445;SDS011;4761;49.490;10.908;2024-03-23T02:44:43;3.90;;;2.80;;
9445;SDS011;4761;49.490;10.908;2024-03-23T02:47:09;3.23;;;2.83;;
9445;SDS011;4761;49.490;10.908;2024-03-23T02:49:35;3.40;;;2.60;;
9445;SDS011;4761;49.490;10.908;2024-03-23T02:52:00;3.50;;;3.20;;
9445;SDS011;4761;49.490;10.908;2024-03-23T02:54:26;3.07;;;2.80;;
9445;SDS011;4761;49.490;10.908;2024-03-23T02:56:52;3.13;;;2.83;;
9445;SDS011;4761;49.490;10.908;2024-03-23T02:59:17;3.10;;;2.80;;
9445;SDS011;4761;49.490;10.908;2024-03-23T03:01:43;5.47;;;3.07;;
9445;SDS011;4761;49.490;10.908;2024-03-23T03:04:08;2.87;;;2.60;;
9445;SDS011;4761;49.490;10.908;2024-03-23T03:06:34;3.93;;;2.80;;
9445;SDS011;4761;49.490;10.908;2024-03-23T03:08:59;3.13;;;2.60;;
9445;SDS011;4761;49.490;10.908;2024-03-23T03:11:25;3.08;;;2.72;;
9445;SDS011;4761;49.490;10.908;2024-03-23T03:13:50;3.10;;;2.80;;
9445;SDS011;4761;49.490;10.908;2024-03-23T03:16:16;4.30;;;2.90;;
9445;SDS011;4761;49.490;10.908;2024-03-23T03:18:41;2.90;;;2.60;;
9445;SDS011;4761;49.490;10.908;2024-03-23T03:21:07;2.73;;;2.43;;
9445;SDS011;4761;49.490;10.908;2024-03-23T03:23:38;3.37;;;2.70;;
9445;SDS011;4761;49.490;10.908;2024-03-23T03:26:04;2.90;;;2.60;;
9445;SDS011;4761;49.490;10.908;2024-03-23T03:28:31;2.90;;;2.47;;
9445;SDS011;4761;49.490;10.908;2024-03-23T03:30:57;2.80;;;2.37;;
9445;SDS011;4761;49.490;10.908;2024-03-23T03:33:28;3.50;;;2.50;;
9445;SDS011;4761;49.490;10.908;2024-03-23T03:35:53;2.88;;;2.47;;
9445;SDS011;4761;49.490;10.908;2024-03-23T03:38:19;2.57;;;2.37;;
9445;SDS011;4761;49.490;10.908;2024-03-23T03:40:45;3.63;;;2.50;;
9445;SDS011;4761;49.490;10.908;2024-03-23T03:43:11;2.73;;;2.53;;
9445;SDS011;4761;49.490;10.908;2024-03-23T03:45:36;2.93;;;2.60;;
9445;SDS011;4761;49.490;10.908;2024-03-23T03:48:02;3.43;;;2.63;;
9445;SDS011;4761;49.490;10.908;2024-03-23T03:50:27;2.73;;;2.50;;
9445;SDS011;4761;49.490;10.908;2024-03-23T03:52:53;2.90;;;2.60;;
9445;SDS011;4761;49.490;10.908;2024-03-23T03:55:18;3.23;;;2.67;;
9445;SDS011;4761;49.490;10.908;2024-03-23T03:57:44;3.20;;;2.90;;
9445;SDS011;4761;49.490;10.908;2024-03-23T04:00:09;3.17;;;2.37;;
9445;SDS011;4761;49.490;10.908;2024-03-23T04:02:36;3.80;;;2.67;;
9445;SDS011;4761;49.490;10.908;2024-03-23T04:05:03;2.80;;;2.40;;
9445;SDS011;4761;49.490;10.908;2024-03-23T04:07:28;2.63;;;2.20;;
9445;SDS011;4761;49.490;10.908;2024-03-23T04:09:54;2.40;;;2.20;;
9445;SDS011;4761;49.490;10.908;2024-03-23T04:12:19;2.90;;;2.60;;
9445;SDS011;4761;49.490;10.908;2024-03-23T04:14:45;2.80;;;2.50;;
9445;SDS011;4761;49.490;10.908;2024-03-23T04:17:11;2.97;;;2.27;;
9445;SDS011;4761;49.490;10.908;2024-03-23T04:19:36;2.70;;;2.50;;
9445;SDS011;4761;49.490;10.908;2024-03-23T04:22:02;3.87;;;2.30;;
9445;SDS011;4761;49.490;10.908;2024-03-23T04:24:28;3.70;;;2.70;;
9445;SDS011;4761;49.490;10.908;2024-03-23T04:26:54;2.53;;;2.17;;
9445;SDS011;4761;49.490;10.908;2024-03-23T04:29:20;2.70;;;2.40;;
9445;SDS011;4761;49.490;10.908;2024-03-23T04:31:45;3.53;;;2.73;;
9445;SDS011;4761;49.490;10.908;2024-03-23T04:34:11;3.30;;;2.73;;
9445;SDS011;4761;49.490;10.908;2024-03-23T04:36:36;3.23;;;2.40;;
9445;SDS011;4761;49.490;10.908;2024-03-23T04:39:02;4.47;;;2.63;;
9445;SDS011;4761;49.490;10.908;2024-03-23T04:41:28;2.30;;;2.10;;
9445;SDS011;4761;49.490;10.908;2024-03-23T04:43:53;3.43;;;2.63;;
9445;SDS011;4761;49.490;10.908;2024-03-23T04:46:19;2.93;;;2.63;;
9445;SDS011;4761;49.490;10.908;2024-03-23T04:48:45;2.90;;;2.60;;
9445;SDS011;4761;49.490;10.908;2024-03-23T04:51:19;2.78;;;2.58;;
9445;SDS011;4761;49.490;10.908;2024-03-23T04:53:46;4.00;;;2.67;;
9445;SDS011;4761;49.490;10.908;2024-03-23T04:56:12;2.53;;;2.20;;
9445;SDS011;4761;49.490;10.908;2024-03-23T04:58:38;2.80;;;2.47;;
9445;SDS011;4761;49.490;10.908;2024-03-23T05:01:04;3.27;;;2.53;;
9445;SDS011;4761;49.490;10.908;2024-03-23T05:03:29;3.53;;;2.70;;
9445;SDS011;4761;49.490;10.908;2024-03-23T05:05:55;3.13;;;2.40;;
9445;SDS011;4761;49.490;10.908;2024-03-23T05:08:20;2.73;;;2.50;;
9445;SDS011;4761;49.490;10.908;2024-03-23T05:10:46;2.50;;;2.30;;
9445;SDS011;4761;49.490;10.908;2024-03-23T05:13:11;2.53;;;2.33;;
9445;SDS011;4761;49.490;10.908;2024-03-23T05:15:37;2.80;;;2.60;;
9445;SDS011;4761;49.490;10.908;2024-03-23T05:18:03;2.50;;;2.30;;
9445;SDS011;4761;49.490;10.908;2024-03-23T05:20:30;2.70;;;2.50;;
9445;SDS011;4761;49.490;10.908;2024-03-23T05:22:56;3.17;;;2.30;;
9445;SDS011;4761;49.490;10.908;2024-03-23T05:25:21;3.87;;;2.20;;
9445;SDS011;4761;49.490;10.908;2024-03-23T05:27:47;3.13;;;2.50;;
9445;SDS011;4761;49.490;10.908;2024-03-23T05:30:13;5.07;;;2.60;;
9445;SDS011;4761;49.490;10.908;2024-03-23T05:32:39;3.23;;;2.50;;
9445;SDS011;4761;49.490;10.908;2024-03-23T05:35:08;2.67;;;2.40;;
9445;SDS011;4761;49.490;10.908;2024-03-23T05:37:34;3.37;;;2.67;;
9445;SDS011;4761;49.490;10.908;2024-03-23T05:40:00;2.93;;;2.47;;
9445;SDS011;4761;49.490;10.908;2024-03-23T05:42:26;2.77;;;2.53;;
9445;SDS011;4761;49.490;10.908;2024-03-23T05:44:51;2.30;;;2.10;;
9445;SDS011;4761;49.490;10.908;2024-03-23T05:47:17;2.93;;;2.30;;
9445;SDS011;4761;49.490;10.908;2024-03-23T05:49:43;2.87;;;2.30;;
9445;SDS011;4761;49.490;10.908;2024-03-23T05:52:09;4.13;;;2.50;;
9445;SDS011;4761;49.490;10.908;2024-03-23T05:54:35;2.83;;;2.17;;
9445;SDS011;4761;49.490;10.908;2024-03-23T05:57:00;2.63;;;2.17;;
9445;SDS011;4761;49.490;10.908;2024-03-23T05:59:26;2.63;;;2.10;;
9445;SDS011;4761;49.490;10.908;2024-03-23T06:01:52;2.70;;;2.23;;
9445;SDS011;4761;49.490;10.908;2024-03-23T06:04:18;2.67;;;1.80;;
9445;SDS011;4761;49.490;10.908;2024-03-23T06:06:44;2.73;;;2.10;;
9445;SDS011;4761;49.490;10.908;2024-03-23T06:09:09;2.53;;;2.20;;
9445;SDS011;4761;49.490;10.908;2024-03-23T06:11:35;2.20;;;2.00;;
9445;SDS011;4761;49.490;10.908;2024-03-23T06:14:00;3.10;;;2.30;;
9445;SDS011;4761;49.490;10.908;2024-03-23T06:16:26;2.40;;;2.20;;
9445;SDS011;4761;49.490;10.908;2024-03-23T06:18:52;4.33;;;2.20;;
9445;SDS011;4761;49.490;10.908;2024-03-23T06:21:23;2.50;;;2.30;;
9445;SDS011;4761;49.490;10.908;2024-03-23T06:23:51;2.50;;;2.23;;
9445;SDS011;4761;49.490;10.908;2024-03-23T06:26:20;2.40;;;2.20;;
9445;SDS011;4761;49.490;10.908;2024-03-23T06:28:46;2.70;;;2.50;;
9445;SDS011;4761;49.490;10.908;2024-03-23T06:31:12;2.73;;;2.40;;
9445;SDS011;4761;49.490;10.908;2024-03-23T06:33:38;2.50;;;2.27;;
9445;SDS011;4761;49.490;10.908;2024-03-23T06:36:04;3.00;;;2.50;;
9445;SDS011;4761;49.490;10.908;2024-03-23T06:38:30;3.20;;;2.30;;
9445;SDS011;4761;49.490;10.908;2024-03-23T06:40:56;2.70;;;2.40;;
9445;SDS011;4761;49.490;10.908;2024-03-23T06:43:22;3.10;;;2.50;;
9445;SDS011;4761;49.490;10.908;2024-03-23T06:45:53;2.77;;;2.47;;
9445;SDS011;4761;49.490;10.908;2024-03-23T06:48:19;3.03;;;2.60;;
9445;SDS011;4761;49.490;10.908;2024-03-23T06:50:45;2.80;;;2.57;;
9445;SDS011;4761;49.490;10.908;2024-03-23T06:53:14;2.83;;;2.60;;
9445;SDS011;4761;49.490;10.908;2024-03-23T06:55:40;2.77;;;2.50;;
9445;SDS011;4761;49.490;10.908;2024-03-23T06:58:06;3.33;;;2.63;;
9445;SDS011;4761;49.490;10.908;2024-03-23T07:00:32;2.70;;;2.37;;
9445;SDS011;4761;49.490;10.908;2024-03-23T07:02:58;2.47;;;2.27;;
9445;SDS011;4761;49.490;10.908;2024-03-23T07:05:24;2.67;;;2.30;;
9445;SDS011;4761;49.490;10.908;2024-03-23T07:07:50;2.70;;;2.27;;
9445;SDS011;4761;49.490;10.908;2024-03-23T07:10:15;2.83;;;2.50;;
9445;SDS011;4761;49.490;10.908;2024-03-23T07:12:41;2.10;;;1.90;;
9445;SDS011;4761;49.490;10.908;2024-03-23T07:15:06;3.77;;;2.23;;
9445;SDS011;4761;49.490;10.908;2024-03-23T07:17:33;3.30;;;2.50;;
9445;SDS011;4761;49.490;10.908;2024-03-23T07:20:00;2.42;;;2.20;;
9445;SDS011;4761;49.490;10.908;2024-03-23T07:22:28;3.07;;;2.40;;
9445;SDS011;4761;49.490;10.908;2024-03-23T07:25:00;2.77;;;2.57;;
9445;SDS011;4761;49.490;10.908;2024-03-23T07:27:26;2.40;;;2.20;;
9445;SDS011;4761;49.490;10.908;2024-03-23T07:29:51;2.40;;;2.20;;
9445;SDS011;4761;49.490;10.908;2024-03-23T07:32:17;2.13;;;2.03;;
9445;SDS011;4761;49.490;10.908;2024-03-23T07:34:42;2.83;;;2.40;;
9445;SDS011;4761;49.490;10.908;2024-03-23T07:37:09;2.47;;;2.27;;
9445;SDS011;4761;49.490;10.908;2024-03-23T07:39:35;4.03;;;2.20;;
9445;SDS011;4761;49.490;10.908;2024-03-23T07:42:00;2.30;;;2.10;;
9445;SDS011;4761;49.490;10.908;2024-03-23T07:44:26;2.43;;;2.20;;
9445;SDS011;4761;49.490;10.908;2024-03-23T07:46:51;2.27;;;2.07;;
9445;SDS011;4761;49.490;10.908;2024-03-23T07:49:17;2.50;;;2.30;;
9445;SDS011;4761;49.490;10.908;2024-03-23T07:51:43;2.30;;;2.10;;
9445;SDS011;4761;49.490;10.908;2024-03-23T07:54:09;2.13;;;1.90;;
9445;SDS011;4761;49.490;10.908;2024-03-23T07:56:35;2.43;;;2.23;;
9445;SDS011;4761;49.490;10.908;2024-03-23T07:59:00;3.27;;;2.53;;
9445;SDS011;4761;49.490;10.908;2024-03-23T08:01:28;2.27;;;2.07;;
9445;SDS011;4761;49.490;10.908;2024-03-23T08:03:53;3.30;;;2.20;;
9445;SDS011;4761;49.490;10.908;2024-03-23T08:06:19;3.10;;;2.00;;
9445;SDS011;4761;49.490;10.908;2024-03-23T08:08:48;2.27;;;2.00;;
9445;SDS011;4761;49.490;10.908;2024-03-23T08:11:16;2.85;;;2.20;;
9445;SDS011;4761;49.490;10.908;2024-03-23T08:13:42;2.40;;;2.20;;
9445;SDS011;4761;49.490;10.908;2024-03-23T08:16:10;2.27;;;2.07;;
9445;SDS011;4761;49.490;10.908;2024-03-23T08:18:36;2.13;;;1.90;;
9445;SDS011;4761;49.490;10.908;2024-03-23T08:21:05;1.87;;;1.70;;
9445;SDS011;4761;49.490;10.908;2024-03-23T08:23:32;1.83;;;1.73;;
9445;SDS011;4761;49.490;10.908;2024-03-23T08:26:05;1.80;;;1.70;;
9445;SDS011;4761;49.490;10.908;2024-03-23T08:28:31;1.87;;;1.50;;
9445;SDS011;4761;49.490;10.908;2024-03-23T08:30:57;1.70;;;1.60;;
9445;SDS011;4761;49.490;10.908;2024-03-23T08:33:26;1.80;;;1.70;;
9445;SDS011;4761;49.490;10.908;2024-03-23T08:35:55;1.60;;;1.50;;
9445;SDS011;4761;49.490;10.908;2024-03-23T08:38:22;1.50;;;1.40;;
9445;SDS011;4761;49.490;10.908;2024-03-23T08:40:56;1.40;;;1.30;;
9445;SDS011;4761;49.490;10.908;2024-03-23T08:43:25;1.70;;;1.17;;
9445;SDS011;4761;49.490;10.908;2024-03-23T08:45:52;1.30;;;1.20;;
9445;SDS011;4761;49.490;10.908;2024-03-23T08:48:21;1.40;;;1.30;;
9445;SDS011;4761;49.490;10.908;2024-03-23T08:50:47;1.10;;;1.00;;
9445;SDS011;4761;49.490;10.908;2024-03-23T08:53:12;1.10;;;1.00;;
9445;SDS011;4761;49.490;10.908;2024-03-23T08:55:39;1.20;;;1.10;;
9445;SDS011;4761;49.490;10.908;2024-03-23T08:58:05;1.17;;;1.07;;
9445;SDS011;4761;49.490;10.908;2024-03-23T09:00:33;1.03;;;0.90;;
9445;SDS011;4761;49.490;10.908;2024-03-23T09:02:59;0.90;;;0.90;;
9445;SDS011;4761;49.490;10.908;2024-03-23T09:05:26;1.10;;;1.00;;
9445;SDS011;4761;49.490;10.908;2024-03-23T09:07:52;0.77;;;0.77;;
9445;SDS011;4761;49.490;10.908;2024-03-23T09:10:18;1.10;;;0.90;;
9445;SDS011;4761;49.490;10.908;2024-03-23T09:12:43;0.70;;;0.70;;
9445;SDS011;4761;49.490;10.908;2024-03-23T09:15:09;0.80;;;0.70;;
9445;SDS011;4761;49.490;10.908;2024-03-23T09:17:34;0.77;;;0.77;;
9445;SDS011;4761;49.490;10.908;2024-03-23T09:20:00;0.70;;;0.70;;
9445;SDS011;4761;49.490;10.908;2024-03-23T09:22:25;0.70;;;0.60;;
9445;SDS011;4761;49.490;10.908;2024-03-23T09:24:51;0.60;;;0.60;;
9445;SDS011;4761;49.490;10.908;2024-03-23T09:27:17;0.60;;;0.60;;
9445;SDS011;4761;49.490;10.908;2024-03-23T09:29:42;0.60;;;0.60;;
9445;SDS011;4761;49.490;10.908;2024-03-23T09:32:08;0.63;;;0.60;;
9445;SDS011;4761;49.490;10.908;2024-03-23T09:34:34;0.50;;;0.50;;
9445;SDS011;4761;49.490;10.908;2024-03-23T09:36:59;0.50;;;0.50;;
9445;SDS011;4761;49.490;10.908;2024-03-23T09:39:25;0.57;;;0.50;;
9445;SDS011;4761;49.490;10.908;2024-03-23T09:41:50;0.63;;;0.63;;
9445;SDS011;4761;49.490;10.908;2024-03-23T09:44:21;0.70;;;0.40;;
9445;SDS011;4761;49.490;10.908;2024-03-23T09:46:46;0.50;;;0.50;;
9445;SDS011;4761;49.490;10.908;2024-03-23T09:49:12;0.47;;;0.47;;
9445;SDS011;4761;49.490;10.908;2024-03-23T09:51:37;0.40;;;0.40;;
9445;SDS011;4761;49.490;10.908;2024-03-23T09:54:03;0.67;;;0.50;;
9445;SDS011;4761;49.490;10.908;2024-03-23T09:56:28;0.30;;;0.30;;
9445;SDS011;4761;49.490;10.908;2024-03-23T09:59:01;0.47;;;0.47;;
9445;SDS011;4761;49.490;10.908;2024-03-23T10:01:29;0.43;;;0.40;;
9445;SDS011;4761;49.490;10.908;2024-03-23T10:03:55;0.60;;;0.43;;
9445;SDS011;4761;49.490;10.908;2024-03-23T10:06:21;0.60;;;0.50;;
9445;SDS011;4761;49.490;10.908;2024-03-23T10:08:49;1.50;;;0.40;;
9445;SDS011;4761;49.490;10.908;2024-03-23T10:11:15;0.80;;;0.43;;
9445;SDS011;4761;49.490;10.908;2024-03-23T10:13:42;0.50;;;0.50;;
9445;SDS011;4761;49.490;10.908;2024-03-23T10:16:08;0.63;;;0.60;;
9445;SDS011;4761;49.490;10.908;2024-03-23T10:18:38;0.63;;;0.50;;
9445;SDS011;4761;49.490;10.908;2024-03-23T10:21:11;0.80;;;0.43;;
9445;SDS011;4761;49.490;10.908;2024-03-23T10:23:39;0.70;;;0.50;;
9445;SDS011;4761;49.490;10.908;2024-03-23T10:26:13;1.70;;;0.60;;
9445;SDS011;4761;49.490;10.908;2024-03-23T10:28:51;0.50;;;0.50;;
9445;SDS011;4761;49.490;10.908;2024-03-23T10:31:18;0.47;;;0.40;;
9445;SDS011;4761;49.490;10.908;2024-03-23T10:33:47;1.00;;;0.50;;
9445;SDS011;4761;49.490;10.908;2024-03-23T10:36:13;0.53;;;0.53;;
9445;SDS011;4761;49.490;10.908;2024-03-23T10:38:42;0.40;;;0.40;;
9445;SDS011;4761;49.490;10.908;2024-03-23T10:41:09;0.90;;;0.50;;
9445;SDS011;4761;49.490;10.908;2024-03-23T10:43:36;0.57;;;0.57;;
9445;SDS011;4761;49.490;10.908;2024-03-23T10:46:03;1.33;;;0.50;;
9445;SDS011;4761;49.490;10.908;2024-03-23T10:48:29;1.07;;;0.60;;
9445;SDS011;4761;49.490;10.908;2024-03-23T10:50:54;0.40;;;0.40;;
9445;SDS011;4761;49.490;10.908;2024-03-23T10:53:25;1.17;;;0.60;;
9445;SDS011;4761;49.490;10.908;2024-03-23T10:55:52;0.97;;;0.50;;
9445;SDS011;4761;49.490;10.908;2024-03-23T10:58:23;0.40;;;0.40;;
9445;SDS011;4761;49.490;10.908;2024-03-23T11:00:55;0.80;;;0.53;;
9445;SDS011;4761;49.490;10.908;2024-03-23T11:03:33;0.83;;;0.60;;
9445;SDS011;4761;49.490;10.908;2024-03-23T11:06:04;2.00;;;0.67;;
9445;SDS011;4761;49.490;10.908;2024-03-23T11:08:34;1.10;;;0.50;;
9445;SDS011;4761;49.490;10.908;2024-03-23T11:11:19;0.70;;;0.60;;
9445;SDS011;4761;49.490;10.908;2024-03-23T11:13:49;1.73;;;0.60;;
9445;SDS011;4761;49.490;10.908;2024-03-23T11:16:22;0.60;;;0.57;;
9445;SDS011;4761;49.490;10.908;2024-03-23T11:22:00;1.13;;;0.63;;
9445;SDS011;4761;49.490;10.908;2024-03-23T11:24:26;1.13;;;0.70;;
9445;SDS011;4761;49.490;10.908;2024-03-23T11:26:51;1.30;;;0.70;;
9445;SDS011;4761;49.490;10.908;2024-03-23T11:29:17;1.10;;;0.70;;
9445;SDS011;4761;49.490;10.908;2024-03-23T11:31:50;1.07;;;0.73;;
9445;SDS011;4761;49.490;10.908;2024-03-23T11:34:17;1.00;;;0.90;;
9445;SDS011;4761;49.490;10.908;2024-03-23T11:36:44;1.43;;;0.90;;
9445;SDS011;4761;49.490;10.908;2024-03-23T11:41:50;1.50;;;0.70;;
9445;SDS011;4761;49.490;10.908;2024-03-23T11:44:21;0.87;;;0.63;;
9445;SDS011;4761;49.490;10.908;2024-03-23T11:46:48;1.20;;;0.80;;
9445;SDS011;4761;49.490;10.908;2024-03-23T11:49:21;1.13;;;0.70;;
9445;SDS011;4761;49.490;10.908;2024-03-23T11:51:54;1.87;;;0.87;;
9445;SDS011;4761;49.490;10.908;2024-03-23T11:54:21;1.07;;;0.80;;
9445;SDS011;4761;49.490;10.908;2024-03-23T11:57:01;1.57;;;0.83;;
9445;SDS011;4761;49.490;10.908;2024-03-23T11:59:37;1.17;;;0.87;;
9445;SDS011;4761;49.490;10.908;2024-03-23T12:02:06;0.80;;;0.60;;
9445;SDS011;4761;49.490;10.908;2024-03-23T12:04:32;2.40;;;0.80;;
9445;SDS011;4761;49.490;10.908;2024-03-23T12:09:46;1.43;;;0.70;;
9445;SDS011;4761;49.490;10.908;2024-03-23T12:12:16;1.80;;;0.83;;
9445;SDS011;4761;49.490;10.908;2024-03-23T12:14:43;1.40;;;0.83;;
9445;SDS011;4761;49.490;10.908;2024-03-23T12:17:13;1.48;;;0.85;;
9445;SDS011;4761;49.490;10.908;2024-03-23T12:19:40;2.70;;;1.00;;
9445;SDS011;4761;49.490;10.908;2024-03-23T12:22:06;1.10;;;0.80;;
9445;SDS011;4761;49.490;10.908;2024-03-23T12:24:33;1.27;;;0.80;;
9445;SDS011;4761;49.490;10.908;2024-03-23T12:26:59;1.63;;;0.70;;
9445;SDS011;4761;49.490;10.908;2024-03-23T12:29:30;1.07;;;0.77;;
9445;SDS011;4761;49.490;10.908;2024-03-23T12:32:00;1.97;;;0.77;;
9445;SDS011;4761;49.490;10.908;2024-03-23T12:34:28;1.30;;;0.70;;
9445;SDS011;4761;49.490;10.908;2024-03-23T12:36:55;2.00;;;0.80;;
9445;SDS011;4761;49.490;10.908;2024-03-23T12:39:21;1.70;;;0.93;;
9445;SDS011;4761;49.490;10.908;2024-03-23T12:41:47;1.00;;;0.77;;
9445;SDS011;4761;49.490;10.908;2024-03-23T12:44:13;2.07;;;0.90;;
9445;SDS011;4761;49.490;10.908;2024-03-23T12:46:40;1.50;;;0.77;;
9445;SDS011;4761;49.490;10.908;2024-03-23T12:49:07;1.30;;;0.88;;
9445;SDS011;4761;49.490;10.908;2024-03-23T12:51:33;1.77;;;1.10;;
9445;SDS011;4761;49.490;10.908;2024-03-23T12:53:59;2.93;;;1.00;;
9445;SDS011;4761;49.490;10.908;2024-03-23T12:56:25;1.83;;;1.03;;
9445;SDS011;4761;49.490;10.908;2024-03-23T12:58:51;1.97;;;0.90;;
9445;SDS011;4761;49.490;10.908;2024-03-23T13:01:18;1.73;;;0.90;;
9445;SDS011;4761;49.490;10.908;2024-03-23T13:03:46;2.10;;;1.20;;
9445;SDS011;4761;49.490;10.908;2024-03-23T13:06:15;2.60;;;1.00;;
9445;SDS011;4761;49.490;10.908;2024-03-23T13:08:41;2.10;;;0.93;;
9445;SDS011;4761;49.490;10.908;2024-03-23T13:11:09;1.70;;;0.90;;
9445;SDS011;4761;49.490;10.908;2024-03-23T13:13:35;1.80;;;1.00;;
9445;SDS011;4761;49.490;10.908;2024-03-23T13:16:04;1.70;;;0.90;;
9445;SDS011;4761;49.490;10.908;2024-03-23T13:18:30;2.33;;;0.90;;
9445;SDS011;4761;49.490;10.908;2024-03-23T13:20:57;1.87;;;1.00;;
9445;SDS011;4761;49.490;10.908;2024-03-23T13:23:23;1.73;;;1.00;;
9445;SDS011;4761;49.490;10.908;2024-03-23T13:25:51;3.33;;;1.17;;
9445;SDS011;4761;49.490;10.908;2024-03-23T13:28:18;1.87;;;0.90;;
9445;SDS011;4761;49.490;10.908;2024-03-23T13:30:53;2.03;;;1.00;;
9445;SDS011;4761;49.490;10.908;2024-03-23T13:33:19;1.97;;;0.87;;
9445;SDS011;4761;49.490;10.908;2024-03-23T13:35:51;1.83;;;0.90;;
9445;SDS011;4761;49.490;10.908;2024-03-23T13:38:18;2.70;;;1.10;;
9445;SDS011;4761;49.490;10.908;2024-03-23T13:40:53;1.60;;;0.90;;
9445;SDS011;4761;49.490;10.908;2024-03-23T13:43:20;2.17;;;0.90;;
9445;SDS011;4761;49.490;10.908;2024-03-23T13:45:50;2.20;;;0.90;;
9445;SDS011;4761;49.490;10.908;2024-03-23T13:48:19;1.87;;;0.90;;
9445;SDS011;4761;49.490;10.908;2024-03-23T13:50:45;3.03;;;1.10;;
9445;SDS011;4761;49.490;10.908;2024-03-23T13:53:13;1.60;;;1.00;;
9445;SDS011;4761;49.490;10.908;2024-03-23T13:55:45;2.13;;;1.20;;
9445;SDS011;4761;49.490;10.908;2024-03-23T13:58:14;2.53;;;0.90;;
9445;SDS011;4761;49.490;10.908;2024-03-23T14:00:40;4.03;;;1.00;;
9445;SDS011;4761;49.490;10.908;2024-03-23T14:03:12;4.00;;;0.80;;
9445;SDS011;4761;49.490;10.908;2024-03-23T14:05:38;4.93;;;1.30;;
9445;SDS011;4761;49.490;10.908;2024-03-23T14:08:05;2.63;;;1.10;;
9445;SDS011;4761;49.490;10.908;2024-03-23T14:10:31;3.90;;;1.20;;
9445;SDS011;4761;49.490;10.908;2024-03-23T14:12:57;2.87;;;1.10;;
9445;SDS011;4761;49.490;10.908;2024-03-23T14:15:22;3.23;;;1.37;;
9445;SDS011;4761;49.490;10.908;2024-03-23T14:17:48;4.83;;;1.30;;
9445;SDS011;4761;49.490;10.908;2024-03-23T14:20:14;1.90;;;1.00;;
9445;SDS011;4761;49.490;10.908;2024-03-23T14:22:40;1.93;;;1.00;;
9445;SDS011;4761;49.490;10.908;2024-03-23T14:25:06;2.27;;;1.10;;
9445;SDS011;4761;49.490;10.908;2024-03-23T14:27:32;1.80;;;0.97;;
9445;SDS011;4761;49.490;10.908;2024-03-23T14:29:57;2.23;;;1.30;;
9445;SDS011;4761;49.490;10.908;2024-03-23T14:32:23;2.50;;;1.00;;
9445;SDS011;4761;49.490;10.908;2024-03-23T14:34:48;2.50;;;1.20;;
9445;SDS011;4761;49.490;10.908;2024-03-23T14:37:14;2.17;;;1.20;;
9445;SDS011;4761;49.490;10.908;2024-03-23T14:39:41;2.30;;;0.90;;
9445;SDS011;4761;49.490;10.908;2024-03-23T14:42:07;2.23;;;0.90;;
9445;SDS011;4761;49.490;10.908;2024-03-23T14:44:33;2.70;;;1.10;;
9445;SDS011;4761;49.490;10.908;2024-03-23T14:46:59;2.10;;;1.00;;
9445;SDS011;4761;49.490;10.908;2024-03-23T14:49:24;1.40;;;0.90;;
9445;SDS011;4761;49.490;10.908;2024-03-23T14:51:51;1.47;;;0.90;;
9445;SDS011;4761;49.490;10.908;2024-03-23T14:54:16;1.97;;;1.10;;
9445;SDS011;4761;49.490;10.908;2024-03-23T14:56:42;4.40;;;1.40;;
9445;SDS011;4761;49.490;10.908;2024-03-23T14:59:08;2.17;;;0.90;;
9445;SDS011;4761;49.490;10.908;2024-03-23T15:01:33;1.67;;;0.73;;
9445;SDS011;4761;49.490;10.908;2024-03-23T15:03:59;1.53;;;0.93;;
9445;SDS011;4761;49.490;10.908;2024-03-23T15:06:25;1.77;;;0.97;;
9445;SDS011;4761;49.490;10.908;2024-03-23T15:08:50;5.67;;;1.30;;
9445;SDS011;4761;49.490;10.908;2024-03-23T15:11:16;2.83;;;1.20;;
9445;SDS011;4761;49.490;10.908;2024-03-23T15:13:44;3.00;;;1.07;;
9445;SDS011;4761;49.490;10.908;2024-03-23T15:16:09;3.83;;;1.23;;
9445;SDS011;4761;49.490;10.908;2024-03-23T15:18:35;2.20;;;1.00;;
9445;SDS011;4761;49.490;10.908;2024-03-23T15:21:01;2.47;;;1.10;;
9445;SDS011;4761;49.490;10.908;2024-03-23T15:23:28;1.57;;;0.93;;
9445;SDS011;4761;49.490;10.908;2024-03-23T15:25:55;2.60;;;1.20;;
9445;SDS011;4761;49.490;10.908;2024-03-23T15:28:21;1.93;;;1.30;;
9445;SDS011;4761;49.490;10.908;2024-03-23T15:30:48;1.97;;;1.00;;
9445;SDS011;4761;49.490;10.908;2024-03-23T15:33:13;3.07;;;1.00;;
9445;SDS011;4761;49.490;10.908;2024-03-23T15:35:39;2.00;;;0.87;;
9445;SDS011;4761;49.490;10.908;2024-03-23T15:38:04;2.83;;;1.00;;
9445;SDS011;4761;49.490;10.908;2024-03-23T15:40:30;2.40;;;1.03;;
9445;SDS011;4761;49.490;10.908;2024-03-23T15:42:55;2.47;;;1.13;;
9445;SDS011;4761;49.490;10.908;2024-03-23T15:45:21;2.73;;;1.00;;
9445;SDS011;4761;49.490;10.908;2024-03-23T15:47:47;1.83;;;1.10;;
9445;SDS011;4761;49.490;10.908;2024-03-23T15:50:12;1.30;;;0.90;;
9445;SDS011;4761;49.490;10.908;2024-03-23T15:52:38;2.40;;;1.20;;
9445;SDS011;4761;49.490;10.908;2024-03-23T15:55:04;1.50;;;0.83;;
9445;SDS011;4761;49.490;10.908;2024-03-23T15:57:33;2.57;;;1.00;;
9445;SDS011;4761;49.490;10.908;2024-03-23T15:59:59;2.80;;;0.90;;